Pagrindinis puslapis
METAR-TAF:

METAR-TAF

Oro uostai :

Dubajaus tarptautinis oro uostas

Dubajus, Jungtiniai Arabų Emyratai

platuma: 25-15-10N, ilguma: 055-21-52E, Aukštis: 8 m

Dabartinis oras

Ataskaita buvo paskelbta 46 minutes, ne 02:00 UTC
Vėjas 9 kt iš Pietų/Pietvakarių
Temperatūra 30°C
Drėgmė 70%
Slėgis 997 hPa
Matomumas 10 km arba daugiau
nėra debesų žemiau 1500 m ir nėra kamuolinių lietaus debesų

METAR: OMDB 170200Z 20009KT CAVOK 30/24 Q0997 NOSIG

Laikas: 06:46 (02:46 UTC)

Prognozė

Ataskaita buvo paskelbta 3 valandos ir 46 minutes, ne 23:00 UTC
Prognozė galioja nuo 17 metu 00 UTC su 18 metu 06 UTC
Vėjas 7 kt iš Pietų
Matomumas: 8000 m
Tikimybė 30%
nuo 17 metu 01 UTC su 17 metu 14 UTC
Matomumas: 4000 m
dulkės
Tapsmas
nuo 17 metu 07 UTC su 17 metu 09 UTC
Vėjas 12 kt iš Vakarų
Tapsmas
nuo 17 metu 18 UTC su 17 metu 20 UTC
Vėjas 2 kt nuo kintamojo kryptimis

TAF: OMDB 162300Z 1700/1806 18007KT 8000 NSC PROB30 1701/1714 4000 DU BECMG 1707/1709 28012KT BECMG 1718/1720 VRB02KT

Orai ataskaitas ir orų prognozės (METAR, TAF).

turimą stotys yra geltonos ir raudonos taškus žemėlapyje.

Perkelti pele per norėdami pamatyti stoties vardą.

Tada spustelėkite, norėdami matyti oro stebėjimo ir prognozės.

Norėdami pakeisti žemėlapį: spustelėkite ant žalios mygtukų su juodo kryžiaus žemyn,; žalią mygtuką su brūkšneliu, jei norite nutolinti; arba žalių rodyklių gretimoms žemėlapius.


METAR-TAF: